KICR

Winner Regional Airport

Winner, South Dakota, USA
METAR KICR 201553Z AUTO 36015G21KT 10SM CLR 18/11 A3014 RMK AO2 SLP202 T01780111
Observed Flight Rules
Aug-20 @ 15:53 UTC (30 minutes ago) Visual Flight Rules
Wind Visibility Clouds
360° at 15 knots
 Gusting to 21 knots
10 miles
  • Clear skies
Temperatures Readings
Current 18°C / 64°F
Dewpoint 11°C / 52°F
Humidity 64%
Altimeter 30.14" Hg
Pressure 1020.2 hPa
Elevation 621
METAR KICR 201553Z AUTO 36015G21KT 10SM CLR 18/11 A3014 RMK AO2 SLP202 T01780111
Observed Flight Rules
Aug-20 @ 15:53 UTC
(30 minutes ago)
VFR
Wind Visibility
360° at 15 knots
 Gusting to 21 knots
10 miles
Clouds
  • Clear skies
Temperature Dewpoint
18°C / 64°F 11°C / 52°F
Humidity Altimeter Pressure
64% 30.14" Hg 1020.2 hPa